sensor_id;sensor_type;location;lat;lon;timestamp;P1;durP1;ratioP1;P2;durP2;ratioP2
3637;SDS011;1835;50.068;8.154;2022-08-19T00:01:54;18.90;;;12.00;;
3637;SDS011;1835;50.068;8.154;2022-08-19T00:04:25;21.20;;;12.53;;
3637;SDS011;1835;50.068;8.154;2022-08-19T00:06:57;23.30;;;13.60;;
3637;SDS011;1835;50.068;8.154;2022-08-19T00:09:27;20.40;;;13.40;;
3637;SDS011;1835;50.068;8.154;2022-08-19T00:11:56;23.63;;;13.13;;
3637;SDS011;1835;50.068;8.154;2022-08-19T00:14:27;19.20;;;13.10;;
3637;SDS011;1835;50.068;8.154;2022-08-19T00:16:58;25.17;;;13.20;;
3637;SDS011;1835;50.068;8.154;2022-08-19T00:19:27;20.77;;;12.60;;
3637;SDS011;1835;50.068;8.154;2022-08-19T00:21:56;22.40;;;13.30;;
3637;SDS011;1835;50.068;8.154;2022-08-19T00:24:25;23.53;;;13.20;;
3637;SDS011;1835;50.068;8.154;2022-08-19T00:26:56;22.03;;;12.80;;
3637;SDS011;1835;50.068;8.154;2022-08-19T00:29:46;26.33;;;14.70;;
3637;SDS011;1835;50.068;8.154;2022-08-19T00:32:17;29.23;;;14.07;;
3637;SDS011;1835;50.068;8.154;2022-08-19T00:34:46;24.90;;;13.63;;
3637;SDS011;1835;50.068;8.154;2022-08-19T00:37:14;17.50;;;12.80;;
3637;SDS011;1835;50.068;8.154;2022-08-19T00:39:42;19.57;;;12.20;;
3637;SDS011;1835;50.068;8.154;2022-08-19T00:42:14;20.43;;;12.70;;
3637;SDS011;1835;50.068;8.154;2022-08-19T00:44:42;21.70;;;13.90;;
3637;SDS011;1835;50.068;8.154;2022-08-19T00:47:12;25.30;;;13.97;;
3637;SDS011;1835;50.068;8.154;2022-08-19T00:49:42;24.47;;;12.90;;
3637;SDS011;1835;50.068;8.154;2022-08-19T00:52:18;17.50;;;12.23;;
3637;SDS011;1835;50.068;8.154;2022-08-19T00:54:51;25.77;;;12.60;;
3637;SDS011;1835;50.068;8.154;2022-08-19T00:57:22;24.40;;;14.37;;
3637;SDS011;1835;50.068;8.154;2022-08-19T00:59:56;23.27;;;13.50;;
3637;SDS011;1835;50.068;8.154;2022-08-19T01:02:30;27.50;;;14.13;;
3637;SDS011;1835;50.068;8.154;2022-08-19T01:05:00;23.20;;;13.83;;
3637;SDS011;1835;50.068;8.154;2022-08-19T01:07:33;27.47;;;14.20;;
3637;SDS011;1835;50.068;8.154;2022-08-19T01:10:04;22.83;;;13.20;;
3637;SDS011;1835;50.068;8.154;2022-08-19T01:12:35;17.83;;;11.63;;
3637;SDS011;1835;50.068;8.154;2022-08-19T01:15:04;27.33;;;13.57;;
3637;SDS011;1835;50.068;8.154;2022-08-19T01:17:38;23.93;;;13.30;;
3637;SDS011;1835;50.068;8.154;2022-08-19T01:20:09;22.00;;;13.57;;
3637;SDS011;1835;50.068;8.154;2022-08-19T01:22:41;23.70;;;13.87;;
3637;SDS011;1835;50.068;8.154;2022-08-19T01:25:13;23.30;;;13.67;;
3637;SDS011;1835;50.068;8.154;2022-08-19T01:27:43;23.07;;;14.60;;
3637;SDS011;1835;50.068;8.154;2022-08-19T01:30:19;32.87;;;17.00;;
3637;SDS011;1835;50.068;8.154;2022-08-19T01:32:52;25.03;;;14.07;;
3637;SDS011;1835;50.068;8.154;2022-08-19T01:35:22;29.00;;;16.47;;
3637;SDS011;1835;50.068;8.154;2022-08-19T01:37:54;31.63;;;14.93;;
3637;SDS011;1835;50.068;8.154;2022-08-19T01:40:26;26.07;;;13.30;;
3637;SDS011;1835;50.068;8.154;2022-08-19T01:43:00;27.03;;;14.53;;
3637;SDS011;1835;50.068;8.154;2022-08-19T01:45:30;23.77;;;14.50;;
3637;SDS011;1835;50.068;8.154;2022-08-19T01:48:00;22.30;;;12.60;;
3637;SDS011;1835;50.068;8.154;2022-08-19T01:50:34;20.67;;;13.03;;
3637;SDS011;1835;50.068;8.154;2022-08-19T01:53:05;22.80;;;13.10;;
3637;SDS011;1835;50.068;8.154;2022-08-19T01:55:39;20.33;;;12.63;;
3637;SDS011;1835;50.068;8.154;2022-08-19T01:58:11;23.90;;;12.40;;
3637;SDS011;1835;50.068;8.154;2022-08-19T02:00:43;18.23;;;12.67;;
3637;SDS011;1835;50.068;8.154;2022-08-19T02:03:11;21.57;;;13.80;;
3637;SDS011;1835;50.068;8.154;2022-08-19T02:05:39;20.00;;;11.00;;
3637;SDS011;1835;50.068;8.154;2022-08-19T02:08:09;22.20;;;12.37;;
3637;SDS011;1835;50.068;8.154;2022-08-19T02:10:39;19.47;;;12.30;;
3637;SDS011;1835;50.068;8.154;2022-08-19T02:13:10;21.60;;;12.60;;
3637;SDS011;1835;50.068;8.154;2022-08-19T02:15:39;18.20;;;11.53;;
3637;SDS011;1835;50.068;8.154;2022-08-19T02:18:08;19.47;;;12.00;;
3637;SDS011;1835;50.068;8.154;2022-08-19T02:20:37;17.70;;;10.20;;
3637;SDS011;1835;50.068;8.154;2022-08-19T02:23:07;18.30;;;12.13;;
3637;SDS011;1835;50.068;8.154;2022-08-19T02:25:41;15.00;;;10.37;;
3637;SDS011;1835;50.068;8.154;2022-08-19T02:28:10;18.27;;;12.00;;
3637;SDS011;1835;50.068;8.154;2022-08-19T02:30:44;18.97;;;10.77;;
3637;SDS011;1835;50.068;8.154;2022-08-19T02:33:13;19.80;;;11.00;;
3637;SDS011;1835;50.068;8.154;2022-08-19T02:35:42;15.77;;;11.47;;
3637;SDS011;1835;50.068;8.154;2022-08-19T02:38:11;17.17;;;11.13;;
3637;SDS011;1835;50.068;8.154;2022-08-19T02:40:55;16.63;;;10.33;;
3637;SDS011;1835;50.068;8.154;2022-08-19T02:43:27;22.17;;;11.03;;
3637;SDS011;1835;50.068;8.154;2022-08-19T02:46:00;18.27;;;10.40;;
3637;SDS011;1835;50.068;8.154;2022-08-19T02:48:28;18.23;;;11.10;;
3637;SDS011;1835;50.068;8.154;2022-08-19T02:50:58;21.67;;;12.67;;
3637;SDS011;1835;50.068;8.154;2022-08-19T02:53:28;20.13;;;11.40;;
3637;SDS011;1835;50.068;8.154;2022-08-19T02:55:56;22.40;;;11.70;;
3637;SDS011;1835;50.068;8.154;2022-08-19T02:58:25;15.20;;;11.03;;
3637;SDS011;1835;50.068;8.154;2022-08-19T03:00:54;14.03;;;9.77;;
3637;SDS011;1835;50.068;8.154;2022-08-19T03:03:24;21.67;;;11.30;;
3637;SDS011;1835;50.068;8.154;2022-08-19T03:06:02;16.70;;;10.73;;
3637;SDS011;1835;50.068;8.154;2022-08-19T03:08:37;16.93;;;10.67;;
3637;SDS011;1835;50.068;8.154;2022-08-19T03:11:12;15.40;;;10.53;;
3637;SDS011;1835;50.068;8.154;2022-08-19T03:13:43;17.53;;;9.97;;
3637;SDS011;1835;50.068;8.154;2022-08-19T03:16:11;19.30;;;10.43;;
3637;SDS011;1835;50.068;8.154;2022-08-19T03:18:40;13.10;;;9.40;;
3637;SDS011;1835;50.068;8.154;2022-08-19T03:21:09;18.83;;;10.37;;
3637;SDS011;1835;50.068;8.154;2022-08-19T03:23:43;18.13;;;10.23;;
3637;SDS011;1835;50.068;8.154;2022-08-19T03:26:12;12.40;;;9.07;;
3637;SDS011;1835;50.068;8.154;2022-08-19T03:28:42;13.43;;;9.87;;
3637;SDS011;1835;50.068;8.154;2022-08-19T03:31:17;19.80;;;10.47;;
3637;SDS011;1835;50.068;8.154;2022-08-19T03:34:09;14.30;;;10.30;;
3637;SDS011;1835;50.068;8.154;2022-08-19T03:36:39;15.47;;;10.93;;
3637;SDS011;1835;50.068;8.154;2022-08-19T03:39:09;21.90;;;10.60;;
3637;SDS011;1835;50.068;8.154;2022-08-19T03:41:38;16.47;;;10.87;;
3637;SDS011;1835;50.068;8.154;2022-08-19T03:44:11;15.00;;;9.93;;
3637;SDS011;1835;50.068;8.154;2022-08-19T03:46:44;15.03;;;10.57;;
3637;SDS011;1835;50.068;8.154;2022-08-19T03:49:14;13.27;;;9.90;;
3637;SDS011;1835;50.068;8.154;2022-08-19T03:51:44;18.10;;;10.10;;
3637;SDS011;1835;50.068;8.154;2022-08-19T03:54:17;13.40;;;9.73;;
3637;SDS011;1835;50.068;8.154;2022-08-19T03:56:51;15.13;;;10.13;;
3637;SDS011;1835;50.068;8.154;2022-08-19T03:59:23;15.67;;;11.00;;
3637;SDS011;1835;50.068;8.154;2022-08-19T04:01:54;18.13;;;10.80;;
3637;SDS011;1835;50.068;8.154;2022-08-19T04:04:24;14.17;;;9.60;;
3637;SDS011;1835;50.068;8.154;2022-08-19T04:06:55;14.30;;;9.13;;
3637;SDS011;1835;50.068;8.154;2022-08-19T04:09:25;16.20;;;9.90;;
3637;SDS011;1835;50.068;8.154;2022-08-19T04:11:54;18.20;;;9.90;;
3637;SDS011;1835;50.068;8.154;2022-08-19T04:14:26;15.90;;;8.53;;
3637;SDS011;1835;50.068;8.154;2022-08-19T04:16:56;17.40;;;9.20;;
3637;SDS011;1835;50.068;8.154;2022-08-19T04:19:26;17.33;;;9.47;;
3637;SDS011;1835;50.068;8.154;2022-08-19T04:21:56;13.70;;;10.00;;
3637;SDS011;1835;50.068;8.154;2022-08-19T04:24:25;13.33;;;9.23;;
3637;SDS011;1835;50.068;8.154;2022-08-19T04:26:54;13.60;;;9.93;;
3637;SDS011;1835;50.068;8.154;2022-08-19T04:29:23;18.00;;;10.97;;
3637;SDS011;1835;50.068;8.154;2022-08-19T04:31:53;12.50;;;9.33;;
3637;SDS011;1835;50.068;8.154;2022-08-19T04:34:24;15.40;;;10.00;;
3637;SDS011;1835;50.068;8.154;2022-08-19T04:36:56;18.37;;;11.17;;
3637;SDS011;1835;50.068;8.154;2022-08-19T04:39:27;15.07;;;10.20;;
3637;SDS011;1835;50.068;8.154;2022-08-19T04:42:11;19.53;;;9.30;;
3637;SDS011;1835;50.068;8.154;2022-08-19T04:44:57;14.57;;;9.53;;
3637;SDS011;1835;50.068;8.154;2022-08-19T04:47:26;13.17;;;9.27;;
3637;SDS011;1835;50.068;8.154;2022-08-19T04:50:14;12.60;;;9.60;;
3637;SDS011;1835;50.068;8.154;2022-08-19T04:52:42;14.50;;;9.30;;
3637;SDS011;1835;50.068;8.154;2022-08-19T04:55:12;13.23;;;9.63;;
3637;SDS011;1835;50.068;8.154;2022-08-19T04:57:40;16.60;;;9.47;;
3637;SDS011;1835;50.068;8.154;2022-08-19T05:00:09;14.20;;;9.13;;
3637;SDS011;1835;50.068;8.154;2022-08-19T05:02:38;15.13;;;9.90;;
3637;SDS011;1835;50.068;8.154;2022-08-19T05:05:07;13.53;;;10.33;;
3637;SDS011;1835;50.068;8.154;2022-08-19T05:07:35;17.30;;;9.77;;
3637;SDS011;1835;50.068;8.154;2022-08-19T05:10:04;11.50;;;9.60;;
3637;SDS011;1835;50.068;8.154;2022-08-19T05:12:34;10.53;;;7.93;;
3637;SDS011;1835;50.068;8.154;2022-08-19T05:15:03;15.23;;;9.13;;
3637;SDS011;1835;50.068;8.154;2022-08-19T05:17:34;21.50;;;9.80;;
3637;SDS011;1835;50.068;8.154;2022-08-19T05:20:04;16.07;;;9.00;;
3637;SDS011;1835;50.068;8.154;2022-08-19T05:22:52;10.93;;;8.40;;
3637;SDS011;1835;50.068;8.154;2022-08-19T05:25:21;14.87;;;8.93;;
3637;SDS011;1835;50.068;8.154;2022-08-19T05:27:53;14.40;;;10.10;;
3637;SDS011;1835;50.068;8.154;2022-08-19T05:30:21;16.17;;;8.90;;
3637;SDS011;1835;50.068;8.154;2022-08-19T05:33:07;17.80;;;9.53;;
3637;SDS011;1835;50.068;8.154;2022-08-19T05:35:38;17.03;;;9.97;;
3637;SDS011;1835;50.068;8.154;2022-08-19T05:38:07;10.83;;;7.60;;
3637;SDS011;1835;50.068;8.154;2022-08-19T05:40:37;14.27;;;9.40;;
3637;SDS011;1835;50.068;8.154;2022-08-19T05:43:08;15.53;;;9.80;;
3637;SDS011;1835;50.068;8.154;2022-08-19T05:45:39;20.93;;;8.43;;
3637;SDS011;1835;50.068;8.154;2022-08-19T05:48:09;14.63;;;8.53;;
3637;SDS011;1835;50.068;8.154;2022-08-19T05:50:38;12.10;;;9.30;;
3637;SDS011;1835;50.068;8.154;2022-08-19T05:53:08;12.10;;;8.27;;
3637;SDS011;1835;50.068;8.154;2022-08-19T05:55:38;19.50;;;8.43;;
3637;SDS011;1835;50.068;8.154;2022-08-19T05:58:07;10.63;;;8.73;;
3637;SDS011;1835;50.068;8.154;2022-08-19T06:00:36;13.63;;;8.03;;
3637;SDS011;1835;50.068;8.154;2022-08-19T06:03:06;12.77;;;9.47;;
3637;SDS011;1835;50.068;8.154;2022-08-19T06:05:37;12.33;;;8.30;;
3637;SDS011;1835;50.068;8.154;2022-08-19T06:08:17;13.50;;;8.40;;
3637;SDS011;1835;50.068;8.154;2022-08-19T06:11:11;15.27;;;8.00;;
3637;SDS011;1835;50.068;8.154;2022-08-19T06:13:43;13.53;;;7.40;;
3637;SDS011;1835;50.068;8.154;2022-08-19T06:16:17;10.63;;;7.57;;
3637;SDS011;1835;50.068;8.154;2022-08-19T06:18:49;19.70;;;8.20;;
3637;SDS011;1835;50.068;8.154;2022-08-19T06:21:18;10.60;;;7.10;;
3637;SDS011;1835;50.068;8.154;2022-08-19T06:23:47;9.53;;;8.50;;
3637;SDS011;1835;50.068;8.154;2022-08-19T06:26:17;12.50;;;6.30;;
3637;SDS011;1835;50.068;8.154;2022-08-19T06:28:47;14.20;;;8.50;;
3637;SDS011;1835;50.068;8.154;2022-08-19T06:31:17;11.30;;;6.80;;
3637;SDS011;1835;50.068;8.154;2022-08-19T06:33:48;9.13;;;6.60;;
3637;SDS011;1835;50.068;8.154;2022-08-19T06:36:18;7.90;;;6.37;;
3637;SDS011;1835;50.068;8.154;2022-08-19T06:38:51;7.80;;;6.70;;
3637;SDS011;1835;50.068;8.154;2022-08-19T06:41:19;11.17;;;6.10;;
3637;SDS011;1835;50.068;8.154;2022-08-19T06:43:48;11.47;;;6.53;;
3637;SDS011;1835;50.068;8.154;2022-08-19T06:46:21;8.40;;;6.10;;
3637;SDS011;1835;50.068;8.154;2022-08-19T06:48:49;8.33;;;5.80;;
3637;SDS011;1835;50.068;8.154;2022-08-19T06:51:19;5.93;;;5.33;;
3637;SDS011;1835;50.068;8.154;2022-08-19T06:53:50;6.53;;;5.93;;
3637;SDS011;1835;50.068;8.154;2022-08-19T06:56:22;12.67;;;5.60;;
3637;SDS011;1835;50.068;8.154;2022-08-19T06:58:58;9.53;;;5.77;;
3637;SDS011;1835;50.068;8.154;2022-08-19T07:01:26;7.20;;;5.77;;
3637;SDS011;1835;50.068;8.154;2022-08-19T07:03:55;14.83;;;5.83;;
3637;SDS011;1835;50.068;8.154;2022-08-19T07:06:26;9.47;;;5.80;;
3637;SDS011;1835;50.068;8.154;2022-08-19T07:09:10;8.50;;;5.27;;
3637;SDS011;1835;50.068;8.154;2022-08-19T07:11:44;8.60;;;6.63;;
3637;SDS011;1835;50.068;8.154;2022-08-19T07:14:17;10.87;;;5.90;;
3637;SDS011;1835;50.068;8.154;2022-08-19T07:16:51;10.77;;;6.47;;
3637;SDS011;1835;50.068;8.154;2022-08-19T07:19:22;15.60;;;5.90;;
3637;SDS011;1835;50.068;8.154;2022-08-19T07:21:53;21.30;;;5.47;;
3637;SDS011;1835;50.068;8.154;2022-08-19T07:24:23;9.27;;;5.73;;
3637;SDS011;1835;50.068;8.154;2022-08-19T07:26:57;10.80;;;6.77;;
3637;SDS011;1835;50.068;8.154;2022-08-19T07:29:35;10.87;;;7.13;;
3637;SDS011;1835;50.068;8.154;2022-08-19T07:32:04;8.67;;;7.33;;
3637;SDS011;1835;50.068;8.154;2022-08-19T07:34:38;10.20;;;6.60;;
3637;SDS011;1835;50.068;8.154;2022-08-19T07:37:08;10.20;;;6.53;;
3637;SDS011;1835;50.068;8.154;2022-08-19T07:39:37;8.50;;;7.00;;
3637;SDS011;1835;50.068;8.154;2022-08-19T07:42:08;11.87;;;8.03;;
3637;SDS011;1835;50.068;8.154;2022-08-19T07:44:40;21.50;;;12.27;;
3637;SDS011;1835;50.068;8.154;2022-08-19T07:47:16;21.73;;;12.80;;
3637;SDS011;1835;50.068;8.154;2022-08-19T07:50:05;21.40;;;12.77;;
3637;SDS011;1835;50.068;8.154;2022-08-19T07:52:37;23.43;;;11.10;;
3637;SDS011;1835;50.068;8.154;2022-08-19T07:55:07;23.20;;;11.93;;
3637;SDS011;1835;50.068;8.154;2022-08-19T07:57:56;20.33;;;11.73;;
3637;SDS011;1835;50.068;8.154;2022-08-19T08:00:26;22.67;;;13.30;;
3637;SDS011;1835;50.068;8.154;2022-08-19T08:02:54;20.67;;;12.17;;
3637;SDS011;1835;50.068;8.154;2022-08-19T08:05:23;16.13;;;10.03;;
3637;SDS011;1835;50.068;8.154;2022-08-19T08:08:09;17.00;;;8.90;;
3637;SDS011;1835;50.068;8.154;2022-08-19T08:10:53;20.73;;;10.47;;
3637;SDS011;1835;50.068;8.154;2022-08-19T08:13:22;10.30;;;9.20;;
3637;SDS011;1835;50.068;8.154;2022-08-19T08:15:53;11.93;;;10.30;;
3637;SDS011;1835;50.068;8.154;2022-08-19T08:18:21;12.33;;;9.50;;
3637;SDS011;1835;50.068;8.154;2022-08-19T08:20:56;17.70;;;10.77;;
3637;SDS011;1835;50.068;8.154;2022-08-19T08:23:25;18.80;;;10.73;;
3637;SDS011;1835;50.068;8.154;2022-08-19T08:25:55;14.33;;;10.40;;
3637;SDS011;1835;50.068;8.154;2022-08-19T08:28:25;19.00;;;9.47;;
3637;SDS011;1835;50.068;8.154;2022-08-19T08:30:57;11.23;;;8.07;;
3637;SDS011;1835;50.068;8.154;2022-08-19T08:33:26;13.13;;;9.37;;
3637;SDS011;1835;50.068;8.154;2022-08-19T08:36:00;10.83;;;8.23;;
3637;SDS011;1835;50.068;8.154;2022-08-19T08:38:30;10.07;;;8.73;;
3637;SDS011;1835;50.068;8.154;2022-08-19T08:41:07;18.20;;;8.47;;
3637;SDS011;1835;50.068;8.154;2022-08-19T08:43:46;13.80;;;8.30;;
3637;SDS011;1835;50.068;8.154;2022-08-19T08:46:21;17.43;;;9.10;;
3637;SDS011;1835;50.068;8.154;2022-08-19T08:48:59;14.90;;;8.30;;
3637;SDS011;1835;50.068;8.154;2022-08-19T08:51:36;7.63;;;6.80;;
3637;SDS011;1835;50.068;8.154;2022-08-19T08:54:13;9.73;;;7.30;;
3637;SDS011;1835;50.068;8.154;2022-08-19T08:56:46;13.07;;;7.90;;
3637;SDS011;1835;50.068;8.154;2022-08-19T08:59:19;11.67;;;8.60;;
3637;SDS011;1835;50.068;8.154;2022-08-19T09:01:51;13.23;;;8.23;;
3637;SDS011;1835;50.068;8.154;2022-08-19T09:04:20;17.37;;;9.53;;
3637;SDS011;1835;50.068;8.154;2022-08-19T09:06:50;11.30;;;9.37;;
3637;SDS011;1835;50.068;8.154;2022-08-19T09:09:52;14.17;;;11.30;;
3637;SDS011;1835;50.068;8.154;2022-08-19T09:12:32;13.87;;;10.70;;
3637;SDS011;1835;50.068;8.154;2022-08-19T09:15:09;11.67;;;10.07;;
3637;SDS011;1835;50.068;8.154;2022-08-19T09:17:41;15.97;;;10.87;;
3637;SDS011;1835;50.068;8.154;2022-08-19T09:20:16;17.43;;;10.63;;
3637;SDS011;1835;50.068;8.154;2022-08-19T09:22:47;13.20;;;10.07;;
3637;SDS011;1835;50.068;8.154;2022-08-19T09:25:17;13.20;;;9.13;;
3637;SDS011;1835;50.068;8.154;2022-08-19T09:27:52;11.90;;;8.90;;
3637;SDS011;1835;50.068;8.154;2022-08-19T09:30:29;15.43;;;9.90;;
3637;SDS011;1835;50.068;8.154;2022-08-19T09:33:01;16.13;;;8.80;;
3637;SDS011;1835;50.068;8.154;2022-08-19T09:35:29;15.03;;;8.70;;
3637;SDS011;1835;50.068;8.154;2022-08-19T09:38:14;8.23;;;7.43;;
3637;SDS011;1835;50.068;8.154;2022-08-19T09:40:42;9.53;;;7.53;;
3637;SDS011;1835;50.068;8.154;2022-08-19T09:43:11;10.70;;;7.93;;
3637;SDS011;1835;50.068;8.154;2022-08-19T09:45:39;12.40;;;8.00;;
3637;SDS011;1835;50.068;8.154;2022-08-19T09:48:08;13.20;;;6.00;;
3637;SDS011;1835;50.068;8.154;2022-08-19T09:50:44;7.87;;;5.80;;
3637;SDS011;1835;50.068;8.154;2022-08-19T09:53:17;10.60;;;7.13;;
3637;SDS011;1835;50.068;8.154;2022-08-19T09:55:50;13.67;;;6.43;;
3637;SDS011;1835;50.068;8.154;2022-08-19T09:58:19;9.80;;;4.90;;
3637;SDS011;1835;50.068;8.154;2022-08-19T10:00:52;6.03;;;5.43;;
3637;SDS011;1835;50.068;8.154;2022-08-19T10:03:22;6.10;;;5.50;;
3637;SDS011;1835;50.068;8.154;2022-08-19T10:05:55;7.03;;;4.67;;
3637;SDS011;1835;50.068;8.154;2022-08-19T10:08:27;8.03;;;5.60;;
3637;SDS011;1835;50.068;8.154;2022-08-19T10:10:59;4.63;;;4.00;;
3637;SDS011;1835;50.068;8.154;2022-08-19T10:13:48;8.53;;;5.40;;
3637;SDS011;1835;50.068;8.154;2022-08-19T10:16:17;5.00;;;4.70;;
3637;SDS011;1835;50.068;8.154;2022-08-19T10:18:55;4.47;;;4.17;;
3637;SDS011;1835;50.068;8.154;2022-08-19T10:21:25;5.17;;;4.67;;
3637;SDS011;1835;50.068;8.154;2022-08-19T10:23:58;7.10;;;4.50;;
3637;SDS011;1835;50.068;8.154;2022-08-19T10:26:32;4.77;;;4.33;;
3637;SDS011;1835;50.068;8.154;2022-08-19T10:29:03;5.20;;;4.80;;
3637;SDS011;1835;50.068;8.154;2022-08-19T10:31:34;6.27;;;4.50;;
3637;SDS011;1835;50.068;8.154;2022-08-19T10:34:24;5.63;;;5.00;;
3637;SDS011;1835;50.068;8.154;2022-08-19T10:36:55;5.23;;;4.73;;
3637;SDS011;1835;50.068;8.154;2022-08-19T10:39:27;7.73;;;4.53;;
3637;SDS011;1835;50.068;8.154;2022-08-19T10:41:58;4.60;;;4.30;;
3637;SDS011;1835;50.068;8.154;2022-08-19T10:44:31;4.93;;;4.50;;
3637;SDS011;1835;50.068;8.154;2022-08-19T10:47:01;4.77;;;4.43;;
3637;SDS011;1835;50.068;8.154;2022-08-19T10:49:51;4.80;;;4.40;;
3637;SDS011;1835;50.068;8.154;2022-08-19T10:52:39;5.57;;;3.87;;
3637;SDS011;1835;50.068;8.154;2022-08-19T10:55:16;3.93;;;3.63;;
3637;SDS011;1835;50.068;8.154;2022-08-19T10:58:04;4.80;;;4.40;;
3637;SDS011;1835;50.068;8.154;2022-08-19T11:00:39;7.13;;;5.50;;
3637;SDS011;1835;50.068;8.154;2022-08-19T11:03:08;7.40;;;4.80;;
3637;SDS011;1835;50.068;8.154;2022-08-19T11:05:44;6.10;;;3.60;;
3637;SDS011;1835;50.068;8.154;2022-08-19T11:08:19;6.27;;;4.57;;
3637;SDS011;1835;50.068;8.154;2022-08-19T11:10:59;5.30;;;4.90;;
3637;SDS011;1835;50.068;8.154;2022-08-19T11:13:41;5.47;;;4.97;;
3637;SDS011;1835;50.068;8.154;2022-08-19T11:16:13;5.00;;;4.67;;
3637;SDS011;1835;50.068;8.154;2022-08-19T11:18:48;7.73;;;5.73;;
3637;SDS011;1835;50.068;8.154;2022-08-19T11:21:43;10.50;;;5.43;;
3637;SDS011;1835;50.068;8.154;2022-08-19T11:24:27;5.20;;;3.97;;
3637;SDS011;1835;50.068;8.154;2022-08-19T11:27:00;5.87;;;5.33;;
3637;SDS011;1835;50.068;8.154;2022-08-19T11:29:31;6.00;;;5.50;;
3637;SDS011;1835;50.068;8.154;2022-08-19T11:32:02;6.10;;;5.00;;
3637;SDS011;1835;50.068;8.154;2022-08-19T11:34:32;5.53;;;5.07;;
3637;SDS011;1835;50.068;8.154;2022-08-19T11:37:03;5.87;;;5.27;;
3637;SDS011;1835;50.068;8.154;2022-08-19T11:39:32;7.63;;;5.73;;
3637;SDS011;1835;50.068;8.154;2022-08-19T11:42:03;5.50;;;5.00;;
3637;SDS011;1835;50.068;8.154;2022-08-19T11:44:54;7.07;;;5.23;;
3637;SDS011;1835;50.068;8.154;2022-08-19T11:47:22;4.50;;;4.10;;
3637;SDS011;1835;50.068;8.154;2022-08-19T11:49:50;6.03;;;4.80;;
3637;SDS011;1835;50.068;8.154;2022-08-19T11:52:20;5.50;;;5.10;;
3637;SDS011;1835;50.068;8.154;2022-08-19T11:54:49;6.70;;;5.77;;
3637;SDS011;1835;50.068;8.154;2022-08-19T11:57:17;4.93;;;4.53;;
3637;SDS011;1835;50.068;8.154;2022-08-19T11:59:50;6.30;;;5.73;;
3637;SDS011;1835;50.068;8.154;2022-08-19T12:02:20;6.27;;;5.67;;
3637;SDS011;1835;50.068;8.154;2022-08-19T12:04:49;5.93;;;5.33;;
3637;SDS011;1835;50.068;8.154;2022-08-19T12:07:17;6.27;;;5.40;;
3637;SDS011;1835;50.068;8.154;2022-08-19T12:09:47;6.07;;;5.53;;
3637;SDS011;1835;50.068;8.154;2022-08-19T12:12:15;8.90;;;6.67;;
3637;SDS011;1835;50.068;8.154;2022-08-19T12:14:43;7.17;;;5.43;;
3637;SDS011;1835;50.068;8.154;2022-08-19T12:17:12;6.23;;;5.70;;
3637;SDS011;1835;50.068;8.154;2022-08-19T12:19:41;7.80;;;5.30;;
3637;SDS011;1835;50.068;8.154;2022-08-19T12:22:09;6.20;;;5.13;;
3637;SDS011;1835;50.068;8.154;2022-08-19T12:24:40;5.20;;;4.80;;
3637;SDS011;1835;50.068;8.154;2022-08-19T12:27:10;5.47;;;4.77;;
3637;SDS011;1835;50.068;8.154;2022-08-19T12:29:57;3.50;;;3.30;;
3637;SDS011;1835;50.068;8.154;2022-08-19T12:32:27;4.60;;;4.30;;
3637;SDS011;1835;50.068;8.154;2022-08-19T12:34:57;4.40;;;4.10;;
3637;SDS011;1835;50.068;8.154;2022-08-19T12:37:25;3.90;;;3.60;;
3637;SDS011;1835;50.068;8.154;2022-08-19T12:39:53;5.73;;;4.10;;
3637;SDS011;1835;50.068;8.154;2022-08-19T12:42:23;7.10;;;4.47;;
3637;SDS011;1835;50.068;8.154;2022-08-19T12:44:52;5.27;;;4.60;;
3637;SDS011;1835;50.068;8.154;2022-08-19T12:47:20;6.90;;;5.00;;
3637;SDS011;1835;50.068;8.154;2022-08-19T12:49:48;4.80;;;4.40;;
3637;SDS011;1835;50.068;8.154;2022-08-19T12:52:21;5.60;;;4.97;;
3637;SDS011;1835;50.068;8.154;2022-08-19T12:54:52;6.30;;;4.00;;
3637;SDS011;1835;50.068;8.154;2022-08-19T12:57:25;3.83;;;3.60;;
3637;SDS011;1835;50.068;8.154;2022-08-19T12:59:59;5.50;;;4.33;;
3637;SDS011;1835;50.068;8.154;2022-08-19T13:02:32;4.17;;;3.87;;
3637;SDS011;1835;50.068;8.154;2022-08-19T13:05:05;5.13;;;4.10;;
3637;SDS011;1835;50.068;8.154;2022-08-19T13:07:37;5.03;;;4.23;;
3637;SDS011;1835;50.068;8.154;2022-08-19T13:10:07;4.57;;;4.27;;
3637;SDS011;1835;50.068;8.154;2022-08-19T13:12:39;5.10;;;4.27;;
3637;SDS011;1835;50.068;8.154;2022-08-19T13:15:08;4.73;;;3.47;;
3637;SDS011;1835;50.068;8.154;2022-08-19T13:17:40;4.40;;;4.00;;
3637;SDS011;1835;50.068;8.154;2022-08-19T13:20:09;4.43;;;3.37;;
3637;SDS011;1835;50.068;8.154;2022-08-19T13:22:38;3.83;;;3.53;;
3637;SDS011;1835;50.068;8.154;2022-08-19T13:25:07;6.53;;;3.70;;
3637;SDS011;1835;50.068;8.154;2022-08-19T13:27:36;4.17;;;3.17;;
3637;SDS011;1835;50.068;8.154;2022-08-19T13:30:08;3.47;;;3.17;;
3637;SDS011;1835;50.068;8.154;2022-08-19T13:32:56;5.47;;;3.30;;
3637;SDS011;1835;50.068;8.154;2022-08-19T13:35:43;2.90;;;2.70;;
3637;SDS011;1835;50.068;8.154;2022-08-19T13:38:15;3.17;;;2.90;;
3637;SDS011;1835;50.068;8.154;2022-08-19T13:40:45;2.77;;;2.57;;
3637;SDS011;1835;50.068;8.154;2022-08-19T13:43:13;3.03;;;2.93;;
3637;SDS011;1835;50.068;8.154;2022-08-19T13:45:50;3.53;;;3.23;;
3637;SDS011;1835;50.068;8.154;2022-08-19T13:48:22;3.70;;;3.27;;
3637;SDS011;1835;50.068;8.154;2022-08-19T13:50:53;3.00;;;2.80;;
3637;SDS011;1835;50.068;8.154;2022-08-19T13:53:22;5.13;;;3.60;;
3637;SDS011;1835;50.068;8.154;2022-08-19T13:55:50;12.03;;;4.30;;
3637;SDS011;1835;50.068;8.154;2022-08-19T13:58:19;4.73;;;3.57;;
3637;SDS011;1835;50.068;8.154;2022-08-19T14:00:49;3.57;;;3.37;;
3637;SDS011;1835;50.068;8.154;2022-08-19T14:03:18;3.10;;;2.90;;
3637;SDS011;1835;50.068;8.154;2022-08-19T14:05:46;3.50;;;3.30;;
3637;SDS011;1835;50.068;8.154;2022-08-19T14:08:14;3.60;;;3.10;;
3637;SDS011;1835;50.068;8.154;2022-08-19T14:10:43;4.37;;;4.13;;
3637;SDS011;1835;50.068;8.154;2022-08-19T14:13:13;4.03;;;3.73;;
3637;SDS011;1835;50.068;8.154;2022-08-19T14:15:43;3.57;;;3.23;;
3637;SDS011;1835;50.068;8.154;2022-08-19T14:18:13;3.33;;;3.10;;
3637;SDS011;1835;50.068;8.154;2022-08-19T14:20:42;9.93;;;4.10;;
3637;SDS011;1835;50.068;8.154;2022-08-19T14:23:11;12.43;;;4.40;;
3637;SDS011;1835;50.068;8.154;2022-08-19T14:25:39;4.27;;;3.90;;
3637;SDS011;1835;50.068;8.154;2022-08-19T14:28:08;3.73;;;3.43;;
3637;SDS011;1835;50.068;8.154;2022-08-19T14:30:36;9.03;;;4.30;;
3637;SDS011;1835;50.068;8.154;2022-08-19T14:33:05;4.30;;;4.00;;
3637;SDS011;1835;50.068;8.154;2022-08-19T14:35:36;5.77;;;4.13;;
3637;SDS011;1835;50.068;8.154;2022-08-19T14:38:05;4.20;;;3.80;;
3637;SDS011;1835;50.068;8.154;2022-08-19T14:40:35;6.50;;;4.27;;
3637;SDS011;1835;50.068;8.154;2022-08-19T14:43:04;6.27;;;4.10;;
3637;SDS011;1835;50.068;8.154;2022-08-19T14:45:33;4.47;;;4.13;;
3637;SDS011;1835;50.068;8.154;2022-08-19T14:48:06;4.67;;;3.97;;
3637;SDS011;1835;50.068;8.154;2022-08-19T14:50:46;3.87;;;3.63;;
3637;SDS011;1835;50.068;8.154;2022-08-19T14:53:15;3.97;;;3.40;;
3637;SDS011;1835;50.068;8.154;2022-08-19T14:55:44;6.00;;;4.03;;
3637;SDS011;1835;50.068;8.154;2022-08-19T14:58:13;7.10;;;4.00;;
3637;SDS011;1835;50.068;8.154;2022-08-19T15:00:55;4.07;;;3.67;;
3637;SDS011;1835;50.068;8.154;2022-08-19T15:03:26;4.13;;;3.83;;
3637;SDS011;1835;50.068;8.154;2022-08-19T15:05:56;4.30;;;4.00;;
3637;SDS011;1835;50.068;8.154;2022-08-19T15:08:27;3.87;;;3.57;;
3637;SDS011;1835;50.068;8.154;2022-08-19T15:10:57;4.47;;;4.13;;
3637;SDS011;1835;50.068;8.154;2022-08-19T15:13:26;4.40;;;4.00;;
3637;SDS011;1835;50.068;8.154;2022-08-19T15:15:56;7.93;;;4.30;;
3637;SDS011;1835;50.068;8.154;2022-08-19T15:18:25;4.80;;;4.30;;
3637;SDS011;1835;50.068;8.154;2022-08-19T15:20:53;4.63;;;4.17;;
3637;SDS011;1835;50.068;8.154;2022-08-19T15:23:23;4.97;;;4.57;;
3637;SDS011;1835;50.068;8.154;2022-08-19T15:25:51;6.63;;;4.53;;
3637;SDS011;1835;50.068;8.154;2022-08-19T15:28:22;7.53;;;4.10;;
3637;SDS011;1835;50.068;8.154;2022-08-19T15:30:51;4.23;;;3.87;;
3637;SDS011;1835;50.068;8.154;2022-08-19T15:33:19;5.00;;;4.27;;